sensor_id;sensor_type;location;lat;lon;timestamp;temperature;humidity
39371;DHT22;25099;51.946;4.838;2023-04-24T00:01:24;11.10;99.90
39371;DHT22;25099;51.946;4.838;2023-04-24T00:03:49;11.10;99.90
39371;DHT22;25099;51.946;4.838;2023-04-24T00:06:15;11.20;99.90
39371;DHT22;25099;51.946;4.838;2023-04-24T00:08:42;11.20;99.90
39371;DHT22;25099;51.946;4.838;2023-04-24T00:11:08;11.20;99.90
39371;DHT22;25099;51.946;4.838;2023-04-24T00:13:34;11.20;99.90
39371;DHT22;25099;51.946;4.838;2023-04-24T00:16:00;11.20;99.90
39371;DHT22;25099;51.946;4.838;2023-04-24T00:18:26;11.20;99.90
39371;DHT22;25099;51.946;4.838;2023-04-24T00:20:52;11.20;99.90
39371;DHT22;25099;51.946;4.838;2023-04-24T00:23:17;11.20;99.90
39371;DHT22;25099;51.946;4.838;2023-04-24T00:25:43;11.20;99.90
39371;DHT22;25099;51.946;4.838;2023-04-24T00:28:08;11.20;99.90
39371;DHT22;25099;51.946;4.838;2023-04-24T00:30:34;11.20;99.90
39371;DHT22;25099;51.946;4.838;2023-04-24T00:32:59;11.20;99.90
39371;DHT22;25099;51.946;4.838;2023-04-24T00:35:25;11.20;99.90
39371;DHT22;25099;51.946;4.838;2023-04-24T00:37:50;11.20;99.90
39371;DHT22;25099;51.946;4.838;2023-04-24T00:40:16;11.10;99.90
39371;DHT22;25099;51.946;4.838;2023-04-24T00:42:43;11.10;99.90
39371;DHT22;25099;51.946;4.838;2023-04-24T00:45:09;11.20;99.90
39371;DHT22;25099;51.946;4.838;2023-04-24T00:47:35;11.20;99.90
39371;DHT22;25099;51.946;4.838;2023-04-24T00:50:03;11.10;99.90
39371;DHT22;25099;51.946;4.838;2023-04-24T00:52:29;11.20;99.90
39371;DHT22;25099;51.946;4.838;2023-04-24T00:54:56;11.20;99.90
39371;DHT22;25099;51.946;4.838;2023-04-24T00:57:22;11.30;99.90
39371;DHT22;25099;51.946;4.838;2023-04-24T00:59:48;11.30;99.90
39371;DHT22;25099;51.946;4.838;2023-04-24T01:02:14;11.30;99.90
39371;DHT22;25099;51.946;4.838;2023-04-24T01:04:40;11.30;99.90
39371;DHT22;25099;51.946;4.838;2023-04-24T01:07:06;11.30;99.90
39371;DHT22;25099;51.946;4.838;2023-04-24T01:09:36;11.30;99.90
39371;DHT22;25099;51.946;4.838;2023-04-24T01:12:03;11.30;99.90
39371;DHT22;25099;51.946;4.838;2023-04-24T01:14:28;11.30;99.90
39371;DHT22;25099;51.946;4.838;2023-04-24T01:16:55;11.30;99.90
39371;DHT22;25099;51.946;4.838;2023-04-24T01:19:22;11.30;99.90
39371;DHT22;25099;51.946;4.838;2023-04-24T01:21:50;11.30;99.90
39371;DHT22;25099;51.946;4.838;2023-04-24T01:24:18;11.30;99.90
39371;DHT22;25099;51.946;4.838;2023-04-24T01:26:44;11.30;99.90
39371;DHT22;25099;51.946;4.838;2023-04-24T01:29:11;11.30;99.90
39371;DHT22;25099;51.946;4.838;2023-04-24T01:31:36;11.30;99.90
39371;DHT22;25099;51.946;4.838;2023-04-24T01:34:02;11.40;99.90
39371;DHT22;25099;51.946;4.838;2023-04-24T01:36:28;11.40;99.90
39371;DHT22;25099;51.946;4.838;2023-04-24T01:38:55;11.30;99.90
39371;DHT22;25099;51.946;4.838;2023-04-24T01:41:20;11.30;99.90
39371;DHT22;25099;51.946;4.838;2023-04-24T01:43:48;11.30;99.90
39371;DHT22;25099;51.946;4.838;2023-04-24T01:46:14;11.30;99.90
39371;DHT22;25099;51.946;4.838;2023-04-24T01:48:40;11.30;99.90
39371;DHT22;25099;51.946;4.838;2023-04-24T01:51:06;11.30;99.90
39371;DHT22;25099;51.946;4.838;2023-04-24T01:53:32;11.30;99.90
39371;DHT22;25099;51.946;4.838;2023-04-24T01:55:57;11.30;99.90
39371;DHT22;25099;51.946;4.838;2023-04-24T01:58:23;11.30;99.90
39371;DHT22;25099;51.946;4.838;2023-04-24T02:00:49;11.30;99.90
39371;DHT22;25099;51.946;4.838;2023-04-24T02:03:14;11.30;99.90
39371;DHT22;25099;51.946;4.838;2023-04-24T02:05:40;11.40;99.90
39371;DHT22;25099;51.946;4.838;2023-04-24T02:08:08;11.40;99.90
39371;DHT22;25099;51.946;4.838;2023-04-24T02:10:34;11.60;99.90
39371;DHT22;25099;51.946;4.838;2023-04-24T02:12:59;11.50;99.90
39371;DHT22;25099;51.946;4.838;2023-04-24T02:15:25;11.40;99.90
39371;DHT22;25099;51.946;4.838;2023-04-24T02:17:51;11.40;99.90
39371;DHT22;25099;51.946;4.838;2023-04-24T02:20:17;11.40;99.90
39371;DHT22;25099;51.946;4.838;2023-04-24T02:22:42;11.30;99.90
39371;DHT22;25099;51.946;4.838;2023-04-24T02:25:08;11.30;99.90
39371;DHT22;25099;51.946;4.838;2023-04-24T02:27:34;11.30;99.90
39371;DHT22;25099;51.946;4.838;2023-04-24T02:29:59;11.30;99.90
39371;DHT22;25099;51.946;4.838;2023-04-24T02:32:25;11.30;99.90
39371;DHT22;25099;51.946;4.838;2023-04-24T02:34:51;11.80;99.90
39371;DHT22;25099;51.946;4.838;2023-04-24T02:37:17;11.40;99.90
39371;DHT22;25099;51.946;4.838;2023-04-24T02:39:42;11.30;99.90
39371;DHT22;25099;51.946;4.838;2023-04-24T02:42:08;11.40;99.90
39371;DHT22;25099;51.946;4.838;2023-04-24T02:44:33;11.30;99.90
39371;DHT22;25099;51.946;4.838;2023-04-24T02:46:59;11.30;99.90
39371;DHT22;25099;51.946;4.838;2023-04-24T02:49:25;11.30;99.90
39371;DHT22;25099;51.946;4.838;2023-04-24T02:51:51;11.30;99.90
39371;DHT22;25099;51.946;4.838;2023-04-24T02:54:16;11.40;99.90
39371;DHT22;25099;51.946;4.838;2023-04-24T02:56:42;11.40;99.90
39371;DHT22;25099;51.946;4.838;2023-04-24T02:59:08;11.40;99.90
39371;DHT22;25099;51.946;4.838;2023-04-24T03:01:34;11.40;99.90
39371;DHT22;25099;51.946;4.838;2023-04-24T03:04:00;11.40;99.90
39371;DHT22;25099;51.946;4.838;2023-04-24T03:06:26;11.30;99.90
39371;DHT22;25099;51.946;4.838;2023-04-24T03:08:52;11.40;99.90
39371;DHT22;25099;51.946;4.838;2023-04-24T03:11:18;11.40;99.90
39371;DHT22;25099;51.946;4.838;2023-04-24T03:13:43;11.30;99.90
39371;DHT22;25099;51.946;4.838;2023-04-24T03:16:09;11.30;99.90
39371;DHT22;25099;51.946;4.838;2023-04-24T03:18:34;11.30;99.90
39371;DHT22;25099;51.946;4.838;2023-04-24T03:21:00;11.20;99.90
39371;DHT22;25099;51.946;4.838;2023-04-24T03:23:26;11.20;99.90
39371;DHT22;25099;51.946;4.838;2023-04-24T03:25:51;11.20;99.90
39371;DHT22;25099;51.946;4.838;2023-04-24T03:28:17;11.10;99.90
39371;DHT22;25099;51.946;4.838;2023-04-24T03:30:43;11.10;99.90
39371;DHT22;25099;51.946;4.838;2023-04-24T03:33:08;11.10;99.90
39371;DHT22;25099;51.946;4.838;2023-04-24T03:35:35;11.00;99.90
39371;DHT22;25099;51.946;4.838;2023-04-24T03:38:01;11.00;99.90
39371;DHT22;25099;51.946;4.838;2023-04-24T03:40:27;11.00;99.90
39371;DHT22;25099;51.946;4.838;2023-04-24T03:42:54;11.10;99.90
39371;DHT22;25099;51.946;4.838;2023-04-24T03:45:20;11.00;99.90
39371;DHT22;25099;51.946;4.838;2023-04-24T03:47:45;11.00;99.90
39371;DHT22;25099;51.946;4.838;2023-04-24T03:50:11;10.90;99.90
39371;DHT22;25099;51.946;4.838;2023-04-24T03:52:36;10.90;99.90
39371;DHT22;25099;51.946;4.838;2023-04-24T03:55:02;10.90;99.90
39371;DHT22;25099;51.946;4.838;2023-04-24T03:57:28;10.90;99.90
39371;DHT22;25099;51.946;4.838;2023-04-24T03:59:53;10.80;99.90
39371;DHT22;25099;51.946;4.838;2023-04-24T04:02:19;10.80;99.90
39371;DHT22;25099;51.946;4.838;2023-04-24T04:04:44;11.20;99.90
39371;DHT22;25099;51.946;4.838;2023-04-24T04:07:10;10.80;99.90
39371;DHT22;25099;51.946;4.838;2023-04-24T04:09:36;10.80;99.90
39371;DHT22;25099;51.946;4.838;2023-04-24T04:12:02;10.80;99.90
39371;DHT22;25099;51.946;4.838;2023-04-24T04:14:28;10.70;99.90
39371;DHT22;25099;51.946;4.838;2023-04-24T04:16:53;10.70;99.90
39371;DHT22;25099;51.946;4.838;2023-04-24T04:19:19;10.80;99.90
39371;DHT22;25099;51.946;4.838;2023-04-24T04:21:45;10.70;99.90
39371;DHT22;25099;51.946;4.838;2023-04-24T04:24:11;10.70;99.90
39371;DHT22;25099;51.946;4.838;2023-04-24T04:26:37;10.80;99.90
39371;DHT22;25099;51.946;4.838;2023-04-24T04:29:03;10.80;99.90
39371;DHT22;25099;51.946;4.838;2023-04-24T04:31:29;10.70;99.90
39371;DHT22;25099;51.946;4.838;2023-04-24T04:33:55;10.80;99.90
39371;DHT22;25099;51.946;4.838;2023-04-24T04:36:21;10.80;99.90
39371;DHT22;25099;51.946;4.838;2023-04-24T04:38:46;10.90;99.90
39371;DHT22;25099;51.946;4.838;2023-04-24T04:41:12;10.90;99.90
39371;DHT22;25099;51.946;4.838;2023-04-24T04:43:37;10.90;99.90
39371;DHT22;25099;51.946;4.838;2023-04-24T04:46:04;11.00;99.90
39371;DHT22;25099;51.946;4.838;2023-04-24T04:48:30;11.00;99.90
39371;DHT22;25099;51.946;4.838;2023-04-24T04:50:57;10.90;99.90
39371;DHT22;25099;51.946;4.838;2023-04-24T04:53:23;11.10;99.90
39371;DHT22;25099;51.946;4.838;2023-04-24T04:55:49;11.00;99.90
39371;DHT22;25099;51.946;4.838;2023-04-24T04:58:15;11.00;99.90
39371;DHT22;25099;51.946;4.838;2023-04-24T05:00:40;11.00;99.90
39371;DHT22;25099;51.946;4.838;2023-04-24T05:03:06;11.00;99.90
39371;DHT22;25099;51.946;4.838;2023-04-24T05:05:32;11.00;99.90
39371;DHT22;25099;51.946;4.838;2023-04-24T05:07:57;11.00;99.90
39371;DHT22;25099;51.946;4.838;2023-04-24T05:10:23;10.90;99.90
39371;DHT22;25099;51.946;4.838;2023-04-24T05:12:49;11.00;99.90
39371;DHT22;25099;51.946;4.838;2023-04-24T05:15:14;10.90;99.90
39371;DHT22;25099;51.946;4.838;2023-04-24T05:17:40;11.00;99.90
39371;DHT22;25099;51.946;4.838;2023-04-24T05:20:06;11.00;99.90
39371;DHT22;25099;51.946;4.838;2023-04-24T05:22:32;11.00;99.90
39371;DHT22;25099;51.946;4.838;2023-04-24T05:24:58;10.90;99.90
39371;DHT22;25099;51.946;4.838;2023-04-24T05:27:24;10.90;99.90
39371;DHT22;25099;51.946;4.838;2023-04-24T05:29:50;10.80;99.90
39371;DHT22;25099;51.946;4.838;2023-04-24T05:32:16;10.80;99.90
39371;DHT22;25099;51.946;4.838;2023-04-24T05:34:41;10.70;99.90
39371;DHT22;25099;51.946;4.838;2023-04-24T05:37:07;10.60;99.90
39371;DHT22;25099;51.946;4.838;2023-04-24T05:39:35;10.60;99.90
39371;DHT22;25099;51.946;4.838;2023-04-24T05:42:01;10.50;99.90
39371;DHT22;25099;51.946;4.838;2023-04-24T05:44:28;10.40;99.90
39371;DHT22;25099;51.946;4.838;2023-04-24T05:46:54;10.30;99.90
39371;DHT22;25099;51.946;4.838;2023-04-24T05:49:21;10.30;99.90
39371;DHT22;25099;51.946;4.838;2023-04-24T05:51:46;10.20;99.90
39371;DHT22;25099;51.946;4.838;2023-04-24T05:54:12;10.00;99.90
39371;DHT22;25099;51.946;4.838;2023-04-24T05:56:38;10.10;99.90
39371;DHT22;25099;51.946;4.838;2023-04-24T05:59:04;10.20;99.90
39371;DHT22;25099;51.946;4.838;2023-04-24T06:01:29;10.10;99.90
39371;DHT22;25099;51.946;4.838;2023-04-24T06:03:56;10.10;99.90
39371;DHT22;25099;51.946;4.838;2023-04-24T06:06:23;10.10;99.90
39371;DHT22;25099;51.946;4.838;2023-04-24T06:08:49;10.20;99.90
39371;DHT22;25099;51.946;4.838;2023-04-24T06:11:14;10.20;99.90
39371;DHT22;25099;51.946;4.838;2023-04-24T06:13:40;10.20;99.90
39371;DHT22;25099;51.946;4.838;2023-04-24T06:16:05;10.20;99.90
39371;DHT22;25099;51.946;4.838;2023-04-24T06:18:31;10.20;99.90
39371;DHT22;25099;51.946;4.838;2023-04-24T06:20:57;10.10;99.90
39371;DHT22;25099;51.946;4.838;2023-04-24T06:23:22;10.10;99.90
39371;DHT22;25099;51.946;4.838;2023-04-24T06:25:48;10.10;99.90
39371;DHT22;25099;51.946;4.838;2023-04-24T06:28:13;10.10;99.90
39371;DHT22;25099;51.946;4.838;2023-04-24T06:30:39;10.10;99.90
39371;DHT22;25099;51.946;4.838;2023-04-24T06:33:04;10.00;99.90
39371;DHT22;25099;51.946;4.838;2023-04-24T06:35:30;10.10;99.90
39371;DHT22;25099;51.946;4.838;2023-04-24T06:37:56;10.10;99.90
39371;DHT22;25099;51.946;4.838;2023-04-24T06:40:22;10.20;99.90
39371;DHT22;25099;51.946;4.838;2023-04-24T06:42:47;10.20;99.90
39371;DHT22;25099;51.946;4.838;2023-04-24T06:45:13;10.10;99.90
39371;DHT22;25099;51.946;4.838;2023-04-24T06:47:38;10.20;99.90
39371;DHT22;25099;51.946;4.838;2023-04-24T06:50:05;10.10;99.90
39371;DHT22;25099;51.946;4.838;2023-04-24T06:52:30;10.10;99.90
39371;DHT22;25099;51.946;4.838;2023-04-24T06:55:01;10.20;99.90
39371;DHT22;25099;51.946;4.838;2023-04-24T06:57:28;10.20;99.90
39371;DHT22;25099;51.946;4.838;2023-04-24T06:59:53;10.90;99.90
39371;DHT22;25099;51.946;4.838;2023-04-24T07:02:19;10.20;99.90
39371;DHT22;25099;51.946;4.838;2023-04-24T07:04:45;10.10;99.90
39371;DHT22;25099;51.946;4.838;2023-04-24T07:07:13;10.10;99.90
39371;DHT22;25099;51.946;4.838;2023-04-24T07:09:39;10.10;99.90
39371;DHT22;25099;51.946;4.838;2023-04-24T07:12:08;10.40;99.90
39371;DHT22;25099;51.946;4.838;2023-04-24T07:14:33;10.20;99.90
39371;DHT22;25099;51.946;4.838;2023-04-24T07:16:59;10.10;99.90
39371;DHT22;25099;51.946;4.838;2023-04-24T07:19:25;10.20;99.90
39371;DHT22;25099;51.946;4.838;2023-04-24T07:21:50;10.10;99.90
39371;DHT22;25099;51.946;4.838;2023-04-24T07:24:16;10.10;99.90
39371;DHT22;25099;51.946;4.838;2023-04-24T07:26:41;10.10;99.90
39371;DHT22;25099;51.946;4.838;2023-04-24T07:29:07;10.10;99.90
39371;DHT22;25099;51.946;4.838;2023-04-24T07:31:33;10.10;99.90
39371;DHT22;25099;51.946;4.838;2023-04-24T07:33:59;10.00;99.90
39371;DHT22;25099;51.946;4.838;2023-04-24T07:36:25;10.00;99.90
39371;DHT22;25099;51.946;4.838;2023-04-24T07:38:51;10.00;99.90
39371;DHT22;25099;51.946;4.838;2023-04-24T07:41:17;10.00;99.90
39371;DHT22;25099;51.946;4.838;2023-04-24T07:43:43;10.00;99.90
39371;DHT22;25099;51.946;4.838;2023-04-24T07:46:09;10.00;99.90
39371;DHT22;25099;51.946;4.838;2023-04-24T07:48:35;10.00;99.90
39371;DHT22;25099;51.946;4.838;2023-04-24T07:51:01;10.10;99.90
39371;DHT22;25099;51.946;4.838;2023-04-24T07:53:27;10.00;99.90
39371;DHT22;25099;51.946;4.838;2023-04-24T07:55:54;10.10;99.90
39371;DHT22;25099;51.946;4.838;2023-04-24T07:58:20;10.10;99.90
39371;DHT22;25099;51.946;4.838;2023-04-24T08:00:46;10.20;99.90
39371;DHT22;25099;51.946;4.838;2023-04-24T08:03:12;10.20;99.90
39371;DHT22;25099;51.946;4.838;2023-04-24T08:05:38;10.20;99.90
39371;DHT22;25099;51.946;4.838;2023-04-24T08:08:04;10.20;99.90
39371;DHT22;25099;51.946;4.838;2023-04-24T08:10:30;10.10;99.90
39371;DHT22;25099;51.946;4.838;2023-04-24T08:12:55;10.10;99.90
39371;DHT22;25099;51.946;4.838;2023-04-24T08:15:21;10.10;99.90
39371;DHT22;25099;51.946;4.838;2023-04-24T08:17:47;10.20;99.90
39371;DHT22;25099;51.946;4.838;2023-04-24T08:20:12;10.20;99.90
39371;DHT22;25099;51.946;4.838;2023-04-24T08:22:42;10.30;99.90
39371;DHT22;25099;51.946;4.838;2023-04-24T08:25:09;10.20;99.90
39371;DHT22;25099;51.946;4.838;2023-04-24T08:27:35;10.30;99.90
39371;DHT22;25099;51.946;4.838;2023-04-24T08:30:02;10.20;99.90
39371;DHT22;25099;51.946;4.838;2023-04-24T08:32:28;10.20;99.90
39371;DHT22;25099;51.946;4.838;2023-04-24T08:34:56;10.20;99.90
39371;DHT22;25099;51.946;4.838;2023-04-24T08:37:26;10.10;99.90
39371;DHT22;25099;51.946;4.838;2023-04-24T08:39:52;10.10;99.90
39371;DHT22;25099;51.946;4.838;2023-04-24T08:42:19;10.20;99.90
39371;DHT22;25099;51.946;4.838;2023-04-24T08:44:44;10.10;99.90
39371;DHT22;25099;51.946;4.838;2023-04-24T08:47:11;10.20;99.90
39371;DHT22;25099;51.946;4.838;2023-04-24T08:49:38;10.20;99.90
39371;DHT22;25099;51.946;4.838;2023-04-24T08:52:04;10.20;99.90
39371;DHT22;25099;51.946;4.838;2023-04-24T08:54:31;10.60;99.90
39371;DHT22;25099;51.946;4.838;2023-04-24T08:57:01;10.30;99.90
39371;DHT22;25099;51.946;4.838;2023-04-24T08:59:27;10.30;99.90
39371;DHT22;25099;51.946;4.838;2023-04-24T09:01:55;10.30;99.90
39371;DHT22;25099;51.946;4.838;2023-04-24T09:04:22;10.30;99.90
39371;DHT22;25099;51.946;4.838;2023-04-24T09:06:56;10.30;99.90
39371;DHT22;25099;51.946;4.838;2023-04-24T09:09:26;10.30;99.90
39371;DHT22;25099;51.946;4.838;2023-04-24T09:11:54;10.30;99.90
39371;DHT22;25099;51.946;4.838;2023-04-24T09:14:21;10.30;99.90
39371;DHT22;25099;51.946;4.838;2023-04-24T09:16:48;10.30;99.90
39371;DHT22;25099;51.946;4.838;2023-04-24T09:19:14;10.30;99.90
39371;DHT22;25099;51.946;4.838;2023-04-24T09:21:39;10.20;99.90
39371;DHT22;25099;51.946;4.838;2023-04-24T09:24:14;10.30;99.90
39371;DHT22;25099;51.946;4.838;2023-04-24T09:26:43;10.30;99.90
39371;DHT22;25099;51.946;4.838;2023-04-24T09:29:16;10.40;99.90
39371;DHT22;25099;51.946;4.838;2023-04-24T09:31:43;10.30;99.90
39371;DHT22;25099;51.946;4.838;2023-04-24T09:34:09;10.30;99.90
39371;DHT22;25099;51.946;4.838;2023-04-24T09:39:06;10.20;99.90
39371;DHT22;25099;51.946;4.838;2023-04-24T09:44:20;10.10;99.90
39371;DHT22;25099;51.946;4.838;2023-04-24T09:46:56;10.10;99.90
39371;DHT22;25099;51.946;4.838;2023-04-24T09:49:24;10.10;99.90
39371;DHT22;25099;51.946;4.838;2023-04-24T09:51:50;10.10;99.90
39371;DHT22;25099;51.946;4.838;2023-04-24T09:54:18;10.10;99.90
39371;DHT22;25099;51.946;4.838;2023-04-24T09:56:47;10.10;99.90
39371;DHT22;25099;51.946;4.838;2023-04-24T09:59:17;10.20;99.90
39371;DHT22;25099;51.946;4.838;2023-04-24T10:01:43;10.10;99.90
39371;DHT22;25099;51.946;4.838;2023-04-24T10:04:18;10.10;99.90
39371;DHT22;25099;51.946;4.838;2023-04-24T10:06:45;10.10;99.90
39371;DHT22;25099;51.946;4.838;2023-04-24T10:09:11;10.10;99.90
39371;DHT22;25099;51.946;4.838;2023-04-24T10:11:43;10.10;99.90
39371;DHT22;25099;51.946;4.838;2023-04-24T10:14:29;10.10;99.90
39371;DHT22;25099;51.946;4.838;2023-04-24T10:16:55;10.30;99.90
39371;DHT22;25099;51.946;4.838;2023-04-24T10:19:26;10.30;99.90
39371;DHT22;25099;51.946;4.838;2023-04-24T10:21:52;10.30;99.90
39371;DHT22;25099;51.946;4.838;2023-04-24T10:24:19;10.30;99.90
39371;DHT22;25099;51.946;4.838;2023-04-24T10:26:48;10.30;99.90
39371;DHT22;25099;51.946;4.838;2023-04-24T10:29:17;10.20;99.90
39371;DHT22;25099;51.946;4.838;2023-04-24T10:31:44;10.40;99.90
39371;DHT22;25099;51.946;4.838;2023-04-24T10:34:11;10.10;99.90
39371;DHT22;25099;51.946;4.838;2023-04-24T10:36:41;10.10;99.90
39371;DHT22;25099;51.946;4.838;2023-04-24T10:39:11;10.00;99.90
39371;DHT22;25099;51.946;4.838;2023-04-24T10:41:37;10.00;99.90
39371;DHT22;25099;51.946;4.838;2023-04-24T10:44:08;10.00;99.90
39371;DHT22;25099;51.946;4.838;2023-04-24T10:46:34;10.10;99.90
39371;DHT22;25099;51.946;4.838;2023-04-24T10:49:03;10.10;99.90
39371;DHT22;25099;51.946;4.838;2023-04-24T10:51:52;10.10;99.90
39371;DHT22;25099;51.946;4.838;2023-04-24T10:54:28;10.10;99.90
39371;DHT22;25099;51.946;4.838;2023-04-24T10:59:48;10.10;99.90
39371;DHT22;25099;51.946;4.838;2023-04-24T11:02:14;10.20;99.90
39371;DHT22;25099;51.946;4.838;2023-04-24T11:04:41;10.20;99.90
39371;DHT22;25099;51.946;4.838;2023-04-24T11:07:09;10.20;99.90
39371;DHT22;25099;51.946;4.838;2023-04-24T11:09:35;10.30;99.90
39371;DHT22;25099;51.946;4.838;2023-04-24T11:12:09;10.30;99.90
39371;DHT22;25099;51.946;4.838;2023-04-24T11:17:38;10.40;99.90
39371;DHT22;25099;51.946;4.838;2023-04-24T11:20:10;10.40;99.90
39371;DHT22;25099;51.946;4.838;2023-04-24T11:22:37;10.40;99.90
39371;DHT22;25099;51.946;4.838;2023-04-24T11:25:05;10.40;99.90
39371;DHT22;25099;51.946;4.838;2023-04-24T11:27:39;10.40;99.90
39371;DHT22;25099;51.946;4.838;2023-04-24T11:30:06;10.40;99.90
39371;DHT22;25099;51.946;4.838;2023-04-24T11:32:39;10.30;99.90
39371;DHT22;25099;51.946;4.838;2023-04-24T11:35:17;10.30;99.90
39371;DHT22;25099;51.946;4.838;2023-04-24T11:37:45;10.40;99.90
39371;DHT22;25099;51.946;4.838;2023-04-24T11:40:15;10.30;99.90
39371;DHT22;25099;51.946;4.838;2023-04-24T11:42:43;10.40;99.90
39371;DHT22;25099;51.946;4.838;2023-04-24T11:45:15;10.40;99.90
39371;DHT22;25099;51.946;4.838;2023-04-24T11:47:41;10.40;99.90
39371;DHT22;25099;51.946;4.838;2023-04-24T11:50:10;10.40;99.90
39371;DHT22;25099;51.946;4.838;2023-04-24T11:52:40;10.50;99.90
39371;DHT22;25099;51.946;4.838;2023-04-24T11:55:12;10.50;99.90
39371;DHT22;25099;51.946;4.838;2023-04-24T11:57:49;10.60;99.90
39371;DHT22;25099;51.946;4.838;2023-04-24T12:00:29;10.70;99.90
39371;DHT22;25099;51.946;4.838;2023-04-24T12:03:11;10.70;99.90
39371;DHT22;25099;51.946;4.838;2023-04-24T12:05:37;10.70;99.90
39371;DHT22;25099;51.946;4.838;2023-04-24T12:08:04;10.70;99.90
39371;DHT22;25099;51.946;4.838;2023-04-24T12:10:31;10.70;99.90
39371;DHT22;25099;51.946;4.838;2023-04-24T12:12:57;10.80;99.90
39371;DHT22;25099;51.946;4.838;2023-04-24T12:15:24;10.80;99.90
39371;DHT22;25099;51.946;4.838;2023-04-24T12:17:54;10.80;99.90
39371;DHT22;25099;51.946;4.838;2023-04-24T12:20:28;10.90;99.90
39371;DHT22;25099;51.946;4.838;2023-04-24T12:22:56;10.90;99.90
39371;DHT22;25099;51.946;4.838;2023-04-24T12:25:30;10.90;99.90
39371;DHT22;25099;51.946;4.838;2023-04-24T12:28:16;10.90;99.90
39371;DHT22;25099;51.946;4.838;2023-04-24T12:30:45;10.90;99.90
39371;DHT22;25099;51.946;4.838;2023-04-24T12:33:17;10.90;99.90
39371;DHT22;25099;51.946;4.838;2023-04-24T12:35:43;10.90;99.90
39371;DHT22;25099;51.946;4.838;2023-04-24T12:38:11;10.90;99.90
39371;DHT22;25099;51.946;4.838;2023-04-24T12:40:38;10.90;99.90
39371;DHT22;25099;51.946;4.838;2023-04-24T12:43:14;10.90;99.90
39371;DHT22;25099;51.946;4.838;2023-04-24T12:45:40;10.90;99.90
39371;DHT22;25099;51.946;4.838;2023-04-24T12:48:05;10.80;99.90
39371;DHT22;25099;51.946;4.838;2023-04-24T12:50:31;10.70;99.90
39371;DHT22;25099;51.946;4.838;2023-04-24T12:52:56;10.60;99.90
39371;DHT22;25099;51.946;4.838;2023-04-24T12:55:22;10.50;99.90
39371;DHT22;25099;51.946;4.838;2023-04-24T12:57:47;10.50;99.90
39371;DHT22;25099;51.946;4.838;2023-04-24T13:00:13;10.50;99.90
39371;DHT22;25099;51.946;4.838;2023-04-24T13:02:39;10.50;99.90
39371;DHT22;25099;51.946;4.838;2023-04-24T13:05:06;10.30;99.90
39371;DHT22;25099;51.946;4.838;2023-04-24T13:07:31;10.30;99.90
39371;DHT22;25099;51.946;4.838;2023-04-24T13:09:57;10.40;99.90
39371;DHT22;25099;51.946;4.838;2023-04-24T13:12:23;10.50;99.90
39371;DHT22;25099;51.946;4.838;2023-04-24T13:14:52;10.50;99.90
39371;DHT22;25099;51.946;4.838;2023-04-24T13:17:17;10.60;99.90
39371;DHT22;25099;51.946;4.838;2023-04-24T13:19:43;10.60;99.90
39371;DHT22;25099;51.946;4.838;2023-04-24T13:22:10;10.60;99.90
39371;DHT22;25099;51.946;4.838;2023-04-24T13:24:37;10.70;99.90
39371;DHT22;25099;51.946;4.838;2023-04-24T13:27:03;11.10;99.90
39371;DHT22;25099;51.946;4.838;2023-04-24T13:29:29;10.70;99.90
39371;DHT22;25099;51.946;4.838;2023-04-24T13:31:55;10.70;99.90
39371;DHT22;25099;51.946;4.838;2023-04-24T13:34:22;10.80;99.90
39371;DHT22;25099;51.946;4.838;2023-04-24T13:36:47;10.80;99.90
39371;DHT22;25099;51.946;4.838;2023-04-24T13:39:13;11.30;99.90
39371;DHT22;25099;51.946;4.838;2023-04-24T13:41:40;10.80;99.90
39371;DHT22;25099;51.946;4.838;2023-04-24T13:44:05;10.80;99.90
39371;DHT22;25099;51.946;4.838;2023-04-24T13:46:31;10.90;99.90
39371;DHT22;25099;51.946;4.838;2023-04-24T13:48:58;10.90;99.90
39371;DHT22;25099;51.946;4.838;2023-04-24T13:51:27;10.90;99.90
39371;DHT22;25099;51.946;4.838;2023-04-24T13:53:53;10.90;99.90
39371;DHT22;25099;51.946;4.838;2023-04-24T13:56:20;10.90;99.90
39371;DHT22;25099;51.946;4.838;2023-04-24T13:58:46;10.90;99.90
39371;DHT22;25099;51.946;4.838;2023-04-24T14:01:12;10.90;99.90
39371;DHT22;25099;51.946;4.838;2023-04-24T14:03:38;11.00;99.90
39371;DHT22;25099;51.946;4.838;2023-04-24T14:06:04;11.00;99.90
39371;DHT22;25099;51.946;4.838;2023-04-24T14:08:30;11.00;99.90
39371;DHT22;25099;51.946;4.838;2023-04-24T14:10:55;11.10;99.90
39371;DHT22;25099;51.946;4.838;2023-04-24T14:13:21;11.10;99.90
39371;DHT22;25099;51.946;4.838;2023-04-24T14:15:47;11.00;99.90
39371;DHT22;25099;51.946;4.838;2023-04-24T14:18:12;11.20;99.90
39371;DHT22;25099;51.946;4.838;2023-04-24T14:20:38;11.00;99.90
39371;DHT22;25099;51.946;4.838;2023-04-24T14:23:03;11.10;99.90
39371;DHT22;25099;51.946;4.838;2023-04-24T14:25:29;11.10;99.90
39371;DHT22;25099;51.946;4.838;2023-04-24T14:27:55;11.10;99.90
39371;DHT22;25099;51.946;4.838;2023-04-24T14:30:21;11.00;99.90
39371;DHT22;25099;51.946;4.838;2023-04-24T14:32:46;11.10;99.90
39371;DHT22;25099;51.946;4.838;2023-04-24T14:35:12;11.00;99.90
39371;DHT22;25099;51.946;4.838;2023-04-24T14:37:38;11.00;99.90
39371;DHT22;25099;51.946;4.838;2023-04-24T14:40:07;11.00;99.90
39371;DHT22;25099;51.946;4.838;2023-04-24T14:42:33;10.90;99.90
39371;DHT22;25099;51.946;4.838;2023-04-24T14:44:59;10.80;99.90
39371;DHT22;25099;51.946;4.838;2023-04-24T14:47:25;10.70;99.90
39371;DHT22;25099;51.946;4.838;2023-04-24T14:49:50;10.60;99.90
39371;DHT22;25099;51.946;4.838;2023-04-24T14:52:16;10.50;99.90
39371;DHT22;25099;51.946;4.838;2023-04-24T14:54:42;10.50;99.90
39371;DHT22;25099;51.946;4.838;2023-04-24T14:57:08;10.40;99.90
39371;DHT22;25099;51.946;4.838;2023-04-24T14:59:34;10.50;99.90
39371;DHT22;25099;51.946;4.838;2023-04-24T15:02:00;10.50;99.90
39371;DHT22;25099;51.946;4.838;2023-04-24T15:04:26;10.50;99.90
39371;DHT22;25099;51.946;4.838;2023-04-24T15:06:52;10.50;99.90
39371;DHT22;25099;51.946;4.838;2023-04-24T15:09:20;10.50;99.90
39371;DHT22;25099;51.946;4.838;2023-04-24T15:11:46;10.60;99.90
39371;DHT22;25099;51.946;4.838;2023-04-24T15:14:11;10.50;99.90
39371;DHT22;25099;51.946;4.838;2023-04-24T15:16:37;10.60;99.90
39371;DHT22;25099;51.946;4.838;2023-04-24T15:19:03;10.60;99.90
39371;DHT22;25099;51.946;4.838;2023-04-24T15:21:29;10.60;99.90
39371;DHT22;25099;51.946;4.838;2023-04-24T15:23:54;10.50;99.90
39371;DHT22;25099;51.946;4.838;2023-04-24T15:26:20;10.60;99.90
39371;DHT22;25099;51.946;4.838;2023-04-24T15:28:46;10.60;99.90
39371;DHT22;25099;51.946;4.838;2023-04-24T15:31:12;10.60;99.90
39371;DHT22;25099;51.946;4.838;2023-04-24T15:33:38;10.70;99.90
39371;DHT22;25099;51.946;4.838;2023-04-24T15:36:03;10.70;99.90
39371;DHT22;25099;51.946;4.838;2023-04-24T15:38:30;10.70;99.90